sensor_id;sensor_type;location;lat;lon;timestamp;P1;durP1;ratioP1;P2;durP2;ratioP2
6898;SDS011;3488;42.616;23.350;2022-08-01T00:01:25;2.88;;;1.90;;
6898;SDS011;3488;42.616;23.350;2022-08-01T00:03:52;1.60;;;1.50;;
6898;SDS011;3488;42.616;23.350;2022-08-01T00:06:19;4.22;;;2.03;;
6898;SDS011;3488;42.616;23.350;2022-08-01T00:08:46;1.67;;;1.67;;
6898;SDS011;3488;42.616;23.350;2022-08-01T00:11:12;1.73;;;1.63;;
6898;SDS011;3488;42.616;23.350;2022-08-01T00:13:41;1.85;;;1.75;;
6898;SDS011;3488;42.616;23.350;2022-08-01T00:16:08;1.92;;;1.85;;
6898;SDS011;3488;42.616;23.350;2022-08-01T00:18:35;1.85;;;1.75;;
6898;SDS011;3488;42.616;23.350;2022-08-01T00:21:02;1.92;;;1.60;;
6898;SDS011;3488;42.616;23.350;2022-08-01T00:23:29;2.10;;;1.90;;
6898;SDS011;3488;42.616;23.350;2022-08-01T00:25:56;2.83;;;2.17;;
6898;SDS011;3488;42.616;23.350;2022-08-01T00:28:23;2.13;;;1.60;;
6898;SDS011;3488;42.616;23.350;2022-08-01T00:30:52;1.52;;;1.42;;
6898;SDS011;3488;42.616;23.350;2022-08-01T00:33:18;1.25;;;1.23;;
6898;SDS011;3488;42.616;23.350;2022-08-01T00:35:45;2.15;;;1.73;;
6898;SDS011;3488;42.616;23.350;2022-08-01T00:38:12;1.50;;;1.50;;
6898;SDS011;3488;42.616;23.350;2022-08-01T00:40:42;1.80;;;1.70;;
6898;SDS011;3488;42.616;23.350;2022-08-01T00:43:09;2.95;;;1.88;;
6898;SDS011;3488;42.616;23.350;2022-08-01T00:45:36;1.40;;;1.38;;
6898;SDS011;3488;42.616;23.350;2022-08-01T00:48:05;1.65;;;1.58;;
6898;SDS011;3488;42.616;23.350;2022-08-01T00:50:32;1.60;;;1.50;;
6898;SDS011;3488;42.616;23.350;2022-08-01T00:52:59;1.30;;;1.30;;
6898;SDS011;3488;42.616;23.350;2022-08-01T00:55:27;1.25;;;1.25;;
6898;SDS011;3488;42.616;23.350;2022-08-01T00:57:54;1.65;;;1.55;;
6898;SDS011;3488;42.616;23.350;2022-08-01T01:00:22;1.27;;;1.27;;
6898;SDS011;3488;42.616;23.350;2022-08-01T01:02:49;3.75;;;3.55;;
6898;SDS011;3488;42.616;23.350;2022-08-01T01:05:18;5.07;;;4.78;;
6898;SDS011;3488;42.616;23.350;2022-08-01T01:07:47;5.72;;;5.43;;
6898;SDS011;3488;42.616;23.350;2022-08-01T01:10:18;6.28;;;5.88;;
6898;SDS011;3488;42.616;23.350;2022-08-01T01:12:50;8.00;;;5.70;;
6898;SDS011;3488;42.616;23.350;2022-08-01T01:15:22;6.28;;;5.78;;
6898;SDS011;3488;42.616;23.350;2022-08-01T01:17:55;5.43;;;5.03;;
6898;SDS011;3488;42.616;23.350;2022-08-01T01:20:30;5.80;;;5.30;;
6898;SDS011;3488;42.616;23.350;2022-08-01T01:23:09;6.50;;;5.13;;
6898;SDS011;3488;42.616;23.350;2022-08-01T01:25:59;3.53;;;2.85;;
6898;SDS011;3488;42.616;23.350;2022-08-01T01:28:38;3.53;;;2.20;;
6898;SDS011;3488;42.616;23.350;2022-08-01T01:31:13;2.00;;;1.85;;
6898;SDS011;3488;42.616;23.350;2022-08-01T01:33:43;1.45;;;1.45;;
6898;SDS011;3488;42.616;23.350;2022-08-01T01:36:10;1.92;;;1.70;;
6898;SDS011;3488;42.616;23.350;2022-08-01T01:38:41;1.50;;;1.40;;
6898;SDS011;3488;42.616;23.350;2022-08-01T01:41:11;1.83;;;1.40;;
6898;SDS011;3488;42.616;23.350;2022-08-01T01:43:39;1.70;;;1.67;;
6898;SDS011;3488;42.616;23.350;2022-08-01T01:46:06;2.85;;;1.75;;
6898;SDS011;3488;42.616;23.350;2022-08-01T01:48:37;1.75;;;1.65;;
6898;SDS011;3488;42.616;23.350;2022-08-01T01:51:06;1.90;;;1.42;;
6898;SDS011;3488;42.616;23.350;2022-08-01T01:53:34;2.58;;;1.45;;
6898;SDS011;3488;42.616;23.350;2022-08-01T01:56:02;1.30;;;1.30;;
6898;SDS011;3488;42.616;23.350;2022-08-01T01:58:30;1.55;;;1.55;;
6898;SDS011;3488;42.616;23.350;2022-08-01T02:00:59;1.70;;;1.60;;
6898;SDS011;3488;42.616;23.350;2022-08-01T02:03:28;2.03;;;1.83;;
6898;SDS011;3488;42.616;23.350;2022-08-01T02:05:58;1.83;;;1.73;;
6898;SDS011;3488;42.616;23.350;2022-08-01T02:08:27;2.75;;;1.67;;
6898;SDS011;3488;42.616;23.350;2022-08-01T02:10:56;2.15;;;2.08;;
6898;SDS011;3488;42.616;23.350;2022-08-01T02:13:42;3.20;;;2.03;;
6898;SDS011;3488;42.616;23.350;2022-08-01T02:16:11;2.03;;;1.65;;
6898;SDS011;3488;42.616;23.350;2022-08-01T02:18:39;1.70;;;1.63;;
6898;SDS011;3488;42.616;23.350;2022-08-01T02:21:09;1.85;;;1.75;;
6898;SDS011;3488;42.616;23.350;2022-08-01T02:23:38;2.03;;;1.92;;
6898;SDS011;3488;42.616;23.350;2022-08-01T02:26:07;2.22;;;1.40;;
6898;SDS011;3488;42.616;23.350;2022-08-01T02:28:38;1.75;;;1.65;;
6898;SDS011;3488;42.616;23.350;2022-08-01T02:31:12;1.45;;;1.45;;
6898;SDS011;3488;42.616;23.350;2022-08-01T02:33:44;1.60;;;1.50;;
6898;SDS011;3488;42.616;23.350;2022-08-01T02:36:22;1.77;;;1.67;;
6898;SDS011;3488;42.616;23.350;2022-08-01T02:38:52;3.38;;;1.67;;
6898;SDS011;3488;42.616;23.350;2022-08-01T02:41:22;1.60;;;1.60;;
6898;SDS011;3488;42.616;23.350;2022-08-01T02:43:53;1.75;;;1.65;;
6898;SDS011;3488;42.616;23.350;2022-08-01T02:46:24;2.03;;;1.83;;
6898;SDS011;3488;42.616;23.350;2022-08-01T02:48:54;2.38;;;1.80;;
6898;SDS011;3488;42.616;23.350;2022-08-01T02:51:26;4.30;;;2.10;;
6898;SDS011;3488;42.616;23.350;2022-08-01T02:53:54;1.80;;;1.77;;
6898;SDS011;3488;42.616;23.350;2022-08-01T02:56:23;1.40;;;1.35;;
6898;SDS011;3488;42.616;23.350;2022-08-01T02:59:00;1.50;;;1.40;;
6898;SDS011;3488;42.616;23.350;2022-08-01T03:01:28;1.63;;;1.55;;
6898;SDS011;3488;42.616;23.350;2022-08-01T03:03:56;2.00;;;1.90;;
6898;SDS011;3488;42.616;23.350;2022-08-01T03:06:23;1.80;;;1.70;;
6898;SDS011;3488;42.616;23.350;2022-08-01T03:08:53;3.22;;;1.67;;
6898;SDS011;3488;42.616;23.350;2022-08-01T03:11:22;1.65;;;1.55;;
6898;SDS011;3488;42.616;23.350;2022-08-01T03:13:51;1.75;;;1.75;;
6898;SDS011;3488;42.616;23.350;2022-08-01T03:16:21;1.75;;;1.65;;
6898;SDS011;3488;42.616;23.350;2022-08-01T03:18:51;1.80;;;1.70;;
6898;SDS011;3488;42.616;23.350;2022-08-01T03:21:21;3.53;;;1.70;;
6898;SDS011;3488;42.616;23.350;2022-08-01T03:23:51;1.80;;;1.80;;
6898;SDS011;3488;42.616;23.350;2022-08-01T03:26:22;2.00;;;1.90;;
6898;SDS011;3488;42.616;23.350;2022-08-01T03:28:52;3.88;;;2.15;;
6898;SDS011;3488;42.616;23.350;2022-08-01T03:31:23;2.30;;;2.20;;
6898;SDS011;3488;42.616;23.350;2022-08-01T03:33:51;2.30;;;2.20;;
6898;SDS011;3488;42.616;23.350;2022-08-01T03:36:20;2.17;;;2.08;;
6898;SDS011;3488;42.616;23.350;2022-08-01T03:38:53;6.22;;;1.95;;
6898;SDS011;3488;42.616;23.350;2022-08-01T03:41:24;2.05;;;1.95;;
6898;SDS011;3488;42.616;23.350;2022-08-01T03:43:55;2.50;;;2.38;;
6898;SDS011;3488;42.616;23.350;2022-08-01T03:46:26;2.53;;;2.35;;
6898;SDS011;3488;42.616;23.350;2022-08-01T03:48:58;2.80;;;2.42;;
6898;SDS011;3488;42.616;23.350;2022-08-01T03:51:30;1.55;;;1.52;;
6898;SDS011;3488;42.616;23.350;2022-08-01T03:54:00;2.22;;;2.13;;
6898;SDS011;3488;42.616;23.350;2022-08-01T03:56:28;2.85;;;2.35;;
6898;SDS011;3488;42.616;23.350;2022-08-01T03:58:57;2.38;;;2.17;;
6898;SDS011;3488;42.616;23.350;2022-08-01T04:01:25;2.35;;;2.25;;
6898;SDS011;3488;42.616;23.350;2022-08-01T04:03:54;2.47;;;2.38;;
6898;SDS011;3488;42.616;23.350;2022-08-01T04:06:22;3.13;;;2.92;;
6898;SDS011;3488;42.616;23.350;2022-08-01T04:08:49;2.50;;;2.30;;
6898;SDS011;3488;42.616;23.350;2022-08-01T04:11:23;2.40;;;2.30;;
6898;SDS011;3488;42.616;23.350;2022-08-01T04:14:09;3.20;;;2.90;;
6898;SDS011;3488;42.616;23.350;2022-08-01T04:16:36;4.13;;;2.40;;
6898;SDS011;3488;42.616;23.350;2022-08-01T04:19:04;2.33;;;2.20;;
6898;SDS011;3488;42.616;23.350;2022-08-01T04:21:33;3.03;;;2.83;;
6898;SDS011;3488;42.616;23.350;2022-08-01T04:24:03;2.30;;;2.20;;
6898;SDS011;3488;42.616;23.350;2022-08-01T04:26:34;2.38;;;2.17;;
6898;SDS011;3488;42.616;23.350;2022-08-01T04:29:04;4.75;;;2.45;;
6898;SDS011;3488;42.616;23.350;2022-08-01T04:31:32;2.20;;;2.10;;
6898;SDS011;3488;42.616;23.350;2022-08-01T04:34:02;2.13;;;2.03;;
6898;SDS011;3488;42.616;23.350;2022-08-01T04:36:32;4.32;;;2.72;;
6898;SDS011;3488;42.616;23.350;2022-08-01T04:39:01;3.67;;;2.72;;
6898;SDS011;3488;42.616;23.350;2022-08-01T04:41:30;3.33;;;3.03;;
6898;SDS011;3488;42.616;23.350;2022-08-01T04:43:59;3.28;;;3.00;;
6898;SDS011;3488;42.616;23.350;2022-08-01T04:46:27;3.38;;;3.00;;
6898;SDS011;3488;42.616;23.350;2022-08-01T04:48:55;3.40;;;2.85;;
6898;SDS011;3488;42.616;23.350;2022-08-01T04:51:23;2.85;;;2.58;;
6898;SDS011;3488;42.616;23.350;2022-08-01T04:53:50;3.65;;;3.35;;
6898;SDS011;3488;42.616;23.350;2022-08-01T04:56:17;2.75;;;2.65;;
6898;SDS011;3488;42.616;23.350;2022-08-01T04:58:45;3.92;;;2.92;;
6898;SDS011;3488;42.616;23.350;2022-08-01T05:01:14;3.85;;;3.05;;
6898;SDS011;3488;42.616;23.350;2022-08-01T05:03:41;5.50;;;3.22;;
6898;SDS011;3488;42.616;23.350;2022-08-01T05:06:09;3.28;;;3.00;;
6898;SDS011;3488;42.616;23.350;2022-08-01T05:08:35;3.38;;;3.15;;
6898;SDS011;3488;42.616;23.350;2022-08-01T05:11:02;2.60;;;2.50;;
6898;SDS011;3488;42.616;23.350;2022-08-01T05:13:30;2.92;;;2.72;;
6898;SDS011;3488;42.616;23.350;2022-08-01T05:15:56;6.32;;;2.60;;
6898;SDS011;3488;42.616;23.350;2022-08-01T05:18:25;2.53;;;2.42;;
6898;SDS011;3488;42.616;23.350;2022-08-01T05:20:52;3.05;;;2.72;;
6898;SDS011;3488;42.616;23.350;2022-08-01T05:23:20;2.05;;;1.95;;
6898;SDS011;3488;42.616;23.350;2022-08-01T05:25:46;3.10;;;2.10;;
6898;SDS011;3488;42.616;23.350;2022-08-01T05:28:14;2.20;;;2.10;;
6898;SDS011;3488;42.616;23.350;2022-08-01T05:30:41;2.47;;;2.17;;
6898;SDS011;3488;42.616;23.350;2022-08-01T05:33:08;3.88;;;2.30;;
6898;SDS011;3488;42.616;23.350;2022-08-01T05:35:36;2.25;;;2.03;;
6898;SDS011;3488;42.616;23.350;2022-08-01T05:38:03;8.27;;;2.58;;
6898;SDS011;3488;42.616;23.350;2022-08-01T05:40:30;2.20;;;2.03;;
6898;SDS011;3488;42.616;23.350;2022-08-01T05:42:57;2.10;;;1.90;;
6898;SDS011;3488;42.616;23.350;2022-08-01T05:45:24;2.15;;;2.05;;
6898;SDS011;3488;42.616;23.350;2022-08-01T05:47:51;2.03;;;1.90;;
6898;SDS011;3488;42.616;23.350;2022-08-01T05:50:18;2.33;;;2.05;;
6898;SDS011;3488;42.616;23.350;2022-08-01T05:52:46;2.40;;;2.17;;
6898;SDS011;3488;42.616;23.350;2022-08-01T05:55:13;2.10;;;2.00;;
6898;SDS011;3488;42.616;23.350;2022-08-01T05:57:40;2.17;;;2.08;;
6898;SDS011;3488;42.616;23.350;2022-08-01T06:00:08;2.67;;;2.08;;
6898;SDS011;3488;42.616;23.350;2022-08-01T06:02:39;2.28;;;2.17;;
6898;SDS011;3488;42.616;23.350;2022-08-01T06:05:07;2.72;;;2.40;;
6898;SDS011;3488;42.616;23.350;2022-08-01T06:07:35;2.35;;;2.25;;
6898;SDS011;3488;42.616;23.350;2022-08-01T06:10:05;2.60;;;2.40;;
6898;SDS011;3488;42.616;23.350;2022-08-01T06:12:33;2.08;;;1.70;;
6898;SDS011;3488;42.616;23.350;2022-08-01T06:15:01;2.22;;;2.10;;
6898;SDS011;3488;42.616;23.350;2022-08-01T06:17:28;2.95;;;2.20;;
6898;SDS011;3488;42.616;23.350;2022-08-01T06:19:55;2.38;;;2.28;;
6898;SDS011;3488;42.616;23.350;2022-08-01T06:22:22;3.03;;;2.17;;
6898;SDS011;3488;42.616;23.350;2022-08-01T06:24:49;2.38;;;2.28;;
6898;SDS011;3488;42.616;23.350;2022-08-01T06:27:17;4.40;;;2.22;;
6898;SDS011;3488;42.616;23.350;2022-08-01T06:29:44;2.50;;;2.40;;
6898;SDS011;3488;42.616;23.350;2022-08-01T06:32:11;3.80;;;2.85;;
6898;SDS011;3488;42.616;23.350;2022-08-01T06:34:38;2.40;;;2.30;;
6898;SDS011;3488;42.616;23.350;2022-08-01T06:37:05;4.35;;;2.50;;
6898;SDS011;3488;42.616;23.350;2022-08-01T06:39:32;2.58;;;2.38;;
6898;SDS011;3488;42.616;23.350;2022-08-01T06:41:58;2.47;;;2.38;;
6898;SDS011;3488;42.616;23.350;2022-08-01T06:44:27;3.78;;;2.30;;
6898;SDS011;3488;42.616;23.350;2022-08-01T06:46:53;2.60;;;2.00;;
6898;SDS011;3488;42.616;23.350;2022-08-01T06:49:20;2.33;;;2.10;;
6898;SDS011;3488;42.616;23.350;2022-08-01T06:51:47;2.58;;;2.38;;
6898;SDS011;3488;42.616;23.350;2022-08-01T06:54:14;2.35;;;2.25;;
6898;SDS011;3488;42.616;23.350;2022-08-01T06:56:41;2.00;;;1.92;;
6898;SDS011;3488;42.616;23.350;2022-08-01T06:59:08;2.75;;;2.20;;
6898;SDS011;3488;42.616;23.350;2022-08-01T07:01:36;2.30;;;2.10;;
6898;SDS011;3488;42.616;23.350;2022-08-01T07:04:03;2.80;;;2.60;;
6898;SDS011;3488;42.616;23.350;2022-08-01T07:06:30;2.58;;;2.38;;
6898;SDS011;3488;42.616;23.350;2022-08-01T07:08:57;2.58;;;2.05;;
6898;SDS011;3488;42.616;23.350;2022-08-01T07:11:26;2.78;;;2.30;;
6898;SDS011;3488;42.616;23.350;2022-08-01T07:13:53;2.00;;;1.90;;
6898;SDS011;3488;42.616;23.350;2022-08-01T07:16:20;3.15;;;2.85;;
6898;SDS011;3488;42.616;23.350;2022-08-01T07:18:48;2.17;;;2.08;;
6898;SDS011;3488;42.616;23.350;2022-08-01T07:21:15;2.92;;;2.65;;
6898;SDS011;3488;42.616;23.350;2022-08-01T07:23:42;2.50;;;2.10;;
6898;SDS011;3488;42.616;23.350;2022-08-01T07:26:09;3.30;;;2.45;;
6898;SDS011;3488;42.616;23.350;2022-08-01T07:28:36;2.58;;;2.45;;
6898;SDS011;3488;42.616;23.350;2022-08-01T07:31:03;2.42;;;2.33;;
6898;SDS011;3488;42.616;23.350;2022-08-01T07:33:30;2.38;;;2.28;;
6898;SDS011;3488;42.616;23.350;2022-08-01T07:35:58;2.40;;;2.30;;
6898;SDS011;3488;42.616;23.350;2022-08-01T07:38:25;2.50;;;2.40;;
6898;SDS011;3488;42.616;23.350;2022-08-01T07:40:52;5.07;;;2.42;;
6898;SDS011;3488;42.616;23.350;2022-08-01T07:43:20;2.95;;;2.17;;
6898;SDS011;3488;42.616;23.350;2022-08-01T07:45:46;3.42;;;2.15;;
6898;SDS011;3488;42.616;23.350;2022-08-01T07:48:13;4.40;;;2.38;;
6898;SDS011;3488;42.616;23.350;2022-08-01T07:50:40;3.00;;;2.70;;
6898;SDS011;3488;42.616;23.350;2022-08-01T07:53:08;2.55;;;2.28;;
6898;SDS011;3488;42.616;23.350;2022-08-01T07:55:36;2.50;;;2.40;;
6898;SDS011;3488;42.616;23.350;2022-08-01T07:58:03;3.00;;;2.25;;
6898;SDS011;3488;42.616;23.350;2022-08-01T08:00:30;2.40;;;2.30;;
6898;SDS011;3488;42.616;23.350;2022-08-01T08:02:57;2.40;;;2.20;;
6898;SDS011;3488;42.616;23.350;2022-08-01T08:05:24;2.55;;;2.35;;
6898;SDS011;3488;42.616;23.350;2022-08-01T08:07:51;4.45;;;2.47;;
6898;SDS011;3488;42.616;23.350;2022-08-01T08:10:20;2.63;;;2.42;;
6898;SDS011;3488;42.616;23.350;2022-08-01T08:12:46;2.35;;;2.25;;
6898;SDS011;3488;42.616;23.350;2022-08-01T08:15:14;1.95;;;1.85;;
6898;SDS011;3488;42.616;23.350;2022-08-01T08:17:41;3.80;;;2.47;;
6898;SDS011;3488;42.616;23.350;2022-08-01T08:20:08;2.50;;;2.40;;
6898;SDS011;3488;42.616;23.350;2022-08-01T08:22:35;2.60;;;2.40;;
6898;SDS011;3488;42.616;23.350;2022-08-01T08:25:03;2.30;;;2.20;;
6898;SDS011;3488;42.616;23.350;2022-08-01T08:27:32;4.28;;;2.53;;
6898;SDS011;3488;42.616;23.350;2022-08-01T08:29:59;2.42;;;2.30;;
6898;SDS011;3488;42.616;23.350;2022-08-01T08:32:26;2.50;;;2.40;;
6898;SDS011;3488;42.616;23.350;2022-08-01T08:34:53;2.30;;;2.20;;
6898;SDS011;3488;42.616;23.350;2022-08-01T08:37:20;2.17;;;2.08;;
6898;SDS011;3488;42.616;23.350;2022-08-01T08:39:47;1.80;;;1.75;;
6898;SDS011;3488;42.616;23.350;2022-08-01T08:42:14;2.70;;;2.17;;
6898;SDS011;3488;42.616;23.350;2022-08-01T08:44:42;2.25;;;2.15;;
6898;SDS011;3488;42.616;23.350;2022-08-01T08:47:11;4.22;;;2.15;;
6898;SDS011;3488;42.616;23.350;2022-08-01T08:49:38;3.95;;;2.28;;
6898;SDS011;3488;42.616;23.350;2022-08-01T08:52:08;2.35;;;2.25;;
6898;SDS011;3488;42.616;23.350;2022-08-01T08:54:37;2.20;;;2.10;;
6898;SDS011;3488;42.616;23.350;2022-08-01T08:57:04;2.85;;;2.40;;
6898;SDS011;3488;42.616;23.350;2022-08-01T08:59:32;3.33;;;2.42;;
6898;SDS011;3488;42.616;23.350;2022-08-01T09:02:01;3.40;;;2.63;;
6898;SDS011;3488;42.616;23.350;2022-08-01T09:04:29;2.88;;;2.53;;
6898;SDS011;3488;42.616;23.350;2022-08-01T09:06:57;2.60;;;2.50;;
6898;SDS011;3488;42.616;23.350;2022-08-01T09:09:24;3.58;;;2.53;;
6898;SDS011;3488;42.616;23.350;2022-08-01T09:11:51;2.00;;;1.90;;
6898;SDS011;3488;42.616;23.350;2022-08-01T09:14:20;2.13;;;2.03;;
6898;SDS011;3488;42.616;23.350;2022-08-01T09:16:58;2.55;;;2.45;;
6898;SDS011;3488;42.616;23.350;2022-08-01T09:19:34;2.30;;;2.20;;
6898;SDS011;3488;42.616;23.350;2022-08-01T09:22:04;3.28;;;2.63;;
6898;SDS011;3488;42.616;23.350;2022-08-01T09:24:32;1.85;;;1.85;;
6898;SDS011;3488;42.616;23.350;2022-08-01T09:27:00;2.60;;;2.50;;
6898;SDS011;3488;42.616;23.350;2022-08-01T09:29:41;2.70;;;2.50;;
6898;SDS011;3488;42.616;23.350;2022-08-01T09:32:11;2.22;;;2.13;;
6898;SDS011;3488;42.616;23.350;2022-08-01T09:34:38;2.45;;;2.25;;
6898;SDS011;3488;42.616;23.350;2022-08-01T09:37:05;2.20;;;2.10;;
6898;SDS011;3488;42.616;23.350;2022-08-01T09:39:33;3.13;;;2.85;;
6898;SDS011;3488;42.616;23.350;2022-08-01T09:42:18;7.20;;;2.53;;
6898;SDS011;3488;42.616;23.350;2022-08-01T09:44:46;1.98;;;1.95;;
6898;SDS011;3488;42.616;23.350;2022-08-01T09:47:15;3.10;;;2.88;;
6898;SDS011;3488;42.616;23.350;2022-08-01T09:49:43;2.47;;;2.30;;
6898;SDS011;3488;42.616;23.350;2022-08-01T09:52:11;2.30;;;2.20;;
6898;SDS011;3488;42.616;23.350;2022-08-01T09:54:40;3.78;;;2.35;;
6898;SDS011;3488;42.616;23.350;2022-08-01T09:57:09;3.42;;;3.05;;
6898;SDS011;3488;42.616;23.350;2022-08-01T09:59:39;4.13;;;2.50;;
6898;SDS011;3488;42.616;23.350;2022-08-01T10:02:08;2.67;;;2.58;;
6898;SDS011;3488;42.616;23.350;2022-08-01T10:04:47;3.30;;;2.47;;
6898;SDS011;3488;42.616;23.350;2022-08-01T10:07:14;3.63;;;2.55;;
6898;SDS011;3488;42.616;23.350;2022-08-01T10:09:42;5.00;;;2.53;;
6898;SDS011;3488;42.616;23.350;2022-08-01T10:12:10;2.50;;;2.30;;
6898;SDS011;3488;42.616;23.350;2022-08-01T10:14:39;5.95;;;3.17;;
6898;SDS011;3488;42.616;23.350;2022-08-01T10:17:07;2.35;;;2.25;;
6898;SDS011;3488;42.616;23.350;2022-08-01T10:19:37;2.53;;;2.42;;
6898;SDS011;3488;42.616;23.350;2022-08-01T10:22:08;2.40;;;2.30;;
6898;SDS011;3488;42.616;23.350;2022-08-01T10:24:39;3.72;;;2.47;;
6898;SDS011;3488;42.616;23.350;2022-08-01T10:27:08;2.83;;;2.72;;
6898;SDS011;3488;42.616;23.350;2022-08-01T10:29:36;5.43;;;2.53;;
6898;SDS011;3488;42.616;23.350;2022-08-01T10:32:08;2.95;;;2.70;;
6898;SDS011;3488;42.616;23.350;2022-08-01T10:34:36;2.50;;;2.40;;
6898;SDS011;3488;42.616;23.350;2022-08-01T10:37:03;2.90;;;2.60;;
6898;SDS011;3488;42.616;23.350;2022-08-01T10:39:33;2.40;;;2.30;;
6898;SDS011;3488;42.616;23.350;2022-08-01T10:42:00;2.30;;;2.20;;
6898;SDS011;3488;42.616;23.350;2022-08-01T10:44:29;2.25;;;1.83;;
6898;SDS011;3488;42.616;23.350;2022-08-01T10:46:59;2.45;;;2.28;;
6898;SDS011;3488;42.616;23.350;2022-08-01T10:49:30;3.55;;;2.08;;
6898;SDS011;3488;42.616;23.350;2022-08-01T10:52:03;2.20;;;2.10;;
6898;SDS011;3488;42.616;23.350;2022-08-01T10:54:30;2.45;;;2.30;;
6898;SDS011;3488;42.616;23.350;2022-08-01T10:57:06;2.25;;;2.15;;
6898;SDS011;3488;42.616;23.350;2022-08-01T10:59:33;2.30;;;2.20;;
6898;SDS011;3488;42.616;23.350;2022-08-01T11:02:05;2.13;;;2.05;;
6898;SDS011;3488;42.616;23.350;2022-08-01T11:04:33;1.65;;;1.63;;
6898;SDS011;3488;42.616;23.350;2022-08-01T11:07:12;2.03;;;1.92;;
6898;SDS011;3488;42.616;23.350;2022-08-01T11:09:46;2.30;;;2.10;;
6898;SDS011;3488;42.616;23.350;2022-08-01T11:12:14;2.22;;;2.13;;
6898;SDS011;3488;42.616;23.350;2022-08-01T11:17:49;2.53;;;2.33;;
6898;SDS011;3488;42.616;23.350;2022-08-01T11:20:17;2.45;;;2.35;;
6898;SDS011;3488;42.616;23.350;2022-08-01T11:26:12;1.70;;;1.70;;
6898;SDS011;3488;42.616;23.350;2022-08-01T11:28:43;4.88;;;2.20;;
6898;SDS011;3488;42.616;23.350;2022-08-01T11:31:27;2.85;;;2.42;;
6898;SDS011;3488;42.616;23.350;2022-08-01T11:33:56;2.90;;;2.13;;
6898;SDS011;3488;42.616;23.350;2022-08-01T11:36:23;2.20;;;2.10;;
6898;SDS011;3488;42.616;23.350;2022-08-01T11:41:41;2.72;;;2.53;;
6898;SDS011;3488;42.616;23.350;2022-08-01T11:44:09;2.60;;;2.40;;
6898;SDS011;3488;42.616;23.350;2022-08-01T11:46:45;2.70;;;2.15;;
6898;SDS011;3488;42.616;23.350;2022-08-01T11:52:13;2.47;;;2.38;;
6898;SDS011;3488;42.616;23.350;2022-08-01T11:54:43;2.08;;;1.98;;
6898;SDS011;3488;42.616;23.350;2022-08-01T11:57:13;2.55;;;2.38;;
6898;SDS011;3488;42.616;23.350;2022-08-01T11:59:41;2.60;;;2.47;;
6898;SDS011;3488;42.616;23.350;2022-08-01T12:02:17;4.38;;;2.50;;
6898;SDS011;3488;42.616;23.350;2022-08-01T12:04:46;2.50;;;2.40;;
6898;SDS011;3488;42.616;23.350;2022-08-01T12:07:15;3.22;;;3.03;;
6898;SDS011;3488;42.616;23.350;2022-08-01T12:09:42;2.40;;;2.30;;
6898;SDS011;3488;42.616;23.350;2022-08-01T12:12:10;2.17;;;2.03;;
6898;SDS011;3488;42.616;23.350;2022-08-01T12:14:42;2.50;;;2.40;;
6898;SDS011;3488;42.616;23.350;2022-08-01T12:17:09;2.80;;;2.17;;
6898;SDS011;3488;42.616;23.350;2022-08-01T12:19:36;2.75;;;2.55;;
6898;SDS011;3488;42.616;23.350;2022-08-01T12:22:08;2.42;;;2.33;;
6898;SDS011;3488;42.616;23.350;2022-08-01T12:24:37;3.22;;;2.95;;
6898;SDS011;3488;42.616;23.350;2022-08-01T12:27:05;2.70;;;2.45;;
6898;SDS011;3488;42.616;23.350;2022-08-01T12:29:37;2.50;;;2.40;;
6898;SDS011;3488;42.616;23.350;2022-08-01T12:32:20;2.60;;;2.40;;
6898;SDS011;3488;42.616;23.350;2022-08-01T12:34:52;3.10;;;2.85;;
6898;SDS011;3488;42.616;23.350;2022-08-01T12:37:20;2.65;;;2.55;;
6898;SDS011;3488;42.616;23.350;2022-08-01T12:39:48;2.60;;;2.40;;
6898;SDS011;3488;42.616;23.350;2022-08-01T12:42:15;4.10;;;2.53;;
6898;SDS011;3488;42.616;23.350;2022-08-01T12:44:44;2.75;;;2.55;;
6898;SDS011;3488;42.616;23.350;2022-08-01T12:47:14;2.53;;;2.33;;
6898;SDS011;3488;42.616;23.350;2022-08-01T12:49:42;2.80;;;2.60;;
6898;SDS011;3488;42.616;23.350;2022-08-01T12:52:10;3.05;;;2.60;;
6898;SDS011;3488;42.616;23.350;2022-08-01T12:57:37;9.07;;;3.40;;
6898;SDS011;3488;42.616;23.350;2022-08-01T13:00:11;2.92;;;2.70;;
6898;SDS011;3488;42.616;23.350;2022-08-01T13:02:40;2.58;;;2.47;;
6898;SDS011;3488;42.616;23.350;2022-08-01T13:05:08;2.35;;;2.25;;
6898;SDS011;3488;42.616;23.350;2022-08-01T13:07:40;3.53;;;2.58;;
6898;SDS011;3488;42.616;23.350;2022-08-01T13:10:10;2.47;;;2.38;;
6898;SDS011;3488;42.616;23.350;2022-08-01T13:12:38;2.45;;;2.35;;
6898;SDS011;3488;42.616;23.350;2022-08-01T13:15:20;2.50;;;2.40;;
6898;SDS011;3488;42.616;23.350;2022-08-01T13:17:52;2.63;;;2.53;;
6898;SDS011;3488;42.616;23.350;2022-08-01T13:20:23;2.80;;;2.60;;
6898;SDS011;3488;42.616;23.350;2022-08-01T13:22:55;2.33;;;2.22;;
6898;SDS011;3488;42.616;23.350;2022-08-01T13:25:46;2.58;;;2.47;;
6898;SDS011;3488;42.616;23.350;2022-08-01T13:28:18;2.50;;;2.40;;
6898;SDS011;3488;42.616;23.350;2022-08-01T13:30:54;3.40;;;3.13;;
6898;SDS011;3488;42.616;23.350;2022-08-01T13:33:23;3.30;;;2.40;;
6898;SDS011;3488;42.616;23.350;2022-08-01T13:35:51;3.78;;;1.92;;
6898;SDS011;3488;42.616;23.350;2022-08-01T13:38:18;2.13;;;2.08;;
6898;SDS011;3488;42.616;23.350;2022-08-01T13:41:05;2.67;;;2.47;;
6898;SDS011;3488;42.616;23.350;2022-08-01T13:43:32;3.65;;;2.47;;
6898;SDS011;3488;42.616;23.350;2022-08-01T13:46:01;2.50;;;2.40;;
6898;SDS011;3488;42.616;23.350;2022-08-01T13:48:29;2.85;;;2.65;;
6898;SDS011;3488;42.616;23.350;2022-08-01T13:50:57;2.40;;;2.22;;
6898;SDS011;3488;42.616;23.350;2022-08-01T13:53:23;2.40;;;2.30;;
6898;SDS011;3488;42.616;23.350;2022-08-01T13:55:50;2.15;;;2.05;;
6898;SDS011;3488;42.616;23.350;2022-08-01T13:58:18;2.83;;;2.63;;
6898;SDS011;3488;42.616;23.350;2022-08-01T14:00:44;2.05;;;2.05;;
6898;SDS011;3488;42.616;23.350;2022-08-01T14:03:13;3.38;;;2.30;;
6898;SDS011;3488;42.616;23.350;2022-08-01T14:05:41;3.20;;;2.90;;
6898;SDS011;3488;42.616;23.350;2022-08-01T14:08:09;2.50;;;2.42;;
6898;SDS011;3488;42.616;23.350;2022-08-01T14:10:36;2.20;;;2.10;;
6898;SDS011;3488;42.616;23.350;2022-08-01T14:13:03;2.60;;;2.40;;
6898;SDS011;3488;42.616;23.350;2022-08-01T14:15:30;2.38;;;2.28;;
6898;SDS011;3488;42.616;23.350;2022-08-01T14:17:58;2.50;;;2.40;;
6898;SDS011;3488;42.616;23.350;2022-08-01T14:20:27;2.22;;;2.03;;
6898;SDS011;3488;42.616;23.350;2022-08-01T14:22:54;2.67;;;2.58;;
6898;SDS011;3488;42.616;23.350;2022-08-01T14:25:21;2.35;;;2.13;;
6898;SDS011;3488;42.616;23.350;2022-08-01T14:27:48;3.22;;;2.40;;
6898;SDS011;3488;42.616;23.350;2022-08-01T14:30:15;2.38;;;2.28;;
6898;SDS011;3488;42.616;23.350;2022-08-01T14:32:42;3.85;;;2.55;;
6898;SDS011;3488;42.616;23.350;2022-08-01T14:35:09;2.10;;;2.00;;
6898;SDS011;3488;42.616;23.350;2022-08-01T14:37:38;2.58;;;2.47;;
6898;SDS011;3488;42.616;23.350;2022-08-01T14:40:05;3.65;;;2.88;;
6898;SDS011;3488;42.616;23.350;2022-08-01T14:42:34;2.75;;;2.65;;
6898;SDS011;3488;42.616;23.350;2022-08-01T14:45:02;3.28;;;2.70;;
6898;SDS011;3488;42.616;23.350;2022-08-01T14:47:33;3.00;;;2.70;;
6898;SDS011;3488;42.616;23.350;2022-08-01T14:50:01;2.40;;;2.30;;
6898;SDS011;3488;42.616;23.350;2022-08-01T14:52:28;2.67;;;2.47;;
6898;SDS011;3488;42.616;23.350;2022-08-01T14:54:56;2.22;;;2.13;;
6898;SDS011;3488;42.616;23.350;2022-08-01T14:57:23;2.05;;;1.95;;
6898;SDS011;3488;42.616;23.350;2022-08-01T14:59:50;2.42;;;2.33;;
6898;SDS011;3488;42.616;23.350;2022-08-01T15:02:17;2.42;;;2.10;;
6898;SDS011;3488;42.616;23.350;2022-08-01T15:04:44;3.30;;;2.20;;
6898;SDS011;3488;42.616;23.350;2022-08-01T15:07:11;2.67;;;2.10;;
6898;SDS011;3488;42.616;23.350;2022-08-01T15:09:38;2.22;;;2.15;;
6898;SDS011;3488;42.616;23.350;2022-08-01T15:12:07;2.30;;;2.20;;
6898;SDS011;3488;42.616;23.350;2022-08-01T15:14:34;1.85;;;1.85;;
6898;SDS011;3488;42.616;23.350;2022-08-01T15:17:17;2.55;;;2.05;;
6898;SDS011;3488;42.616;23.350;2022-08-01T15:19:45;2.67;;;2.47;;
6898;SDS011;3488;42.616;23.350;2022-08-01T15:22:13;1.92;;;1.90;;
6898;SDS011;3488;42.616;23.350;2022-08-01T15:24:40;2.88;;;2.72;;
6898;SDS011;3488;42.616;23.350;2022-08-01T15:27:09;7.10;;;2.20;;